createdAt,value
2019-03-23T00:01:49.652Z,83.12
2019-03-23T00:04:17.319Z,82.03
2019-03-23T00:06:44.968Z,82.82
2019-03-23T00:09:12.711Z,83.63
2019-03-23T00:11:40.358Z,84.26
2019-03-23T00:14:08.031Z,84.04
2019-03-23T00:16:35.815Z,82.96
2019-03-23T00:19:04.029Z,82.30
2019-03-23T00:21:31.720Z,82.21
2019-03-23T00:23:59.415Z,82.15
2019-03-23T00:26:27.076Z,83.20
2019-03-23T00:28:54.775Z,83.81
2019-03-23T00:31:22.435Z,83.32
2019-03-23T00:33:50.097Z,83.32
2019-03-23T00:36:17.771Z,83.23
2019-03-23T00:38:45.435Z,82.41
2019-03-23T00:41:13.091Z,82.37
2019-03-23T00:43:40.750Z,81.35
2019-03-23T00:46:09.245Z,80.95
2019-03-23T00:48:38.316Z,80.85
2019-03-23T00:51:06.030Z,80.79
2019-03-23T00:53:33.687Z,81.29
2019-03-23T00:56:01.431Z,81.26
2019-03-23T00:58:29.087Z,81.42
2019-03-23T01:00:56.736Z,81.73
2019-03-23T01:03:24.398Z,82.16
2019-03-23T01:05:52.055Z,82.39
2019-03-23T01:08:19.722Z,81.95
2019-03-23T01:10:47.891Z,82.87
2019-03-23T01:13:15.559Z,82.77
2019-03-23T01:15:43.219Z,82.63
2019-03-23T01:18:10.895Z,82.79
2019-03-23T01:20:49.093Z,82.97
2019-03-23T01:23:07.959Z,83.19
2019-03-23T01:25:35.615Z,83.13
2019-03-23T01:28:03.276Z,83.65
2019-03-23T01:30:30.936Z,84.41
2019-03-23T01:32:58.595Z,83.93
2019-03-23T01:35:26.321Z,84.24
2019-03-23T01:37:53.978Z,84.37
2019-03-23T01:40:21.646Z,84.37
2019-03-23T01:42:49.340Z,83.95
2019-03-23T01:45:17.057Z,84.91
2019-03-23T01:47:44.746Z,85.79
2019-03-23T01:50:12.410Z,85.57
2019-03-23T01:52:40.066Z,86.41
2019-03-23T01:55:07.741Z,85.73
2019-03-23T01:57:35.398Z,85.90
2019-03-23T02:00:03.119Z,86.26
2019-03-23T02:02:30.770Z,85.55
2019-03-23T02:04:58.435Z,85.21
2019-03-23T02:07:26.088Z,85.52
2019-03-23T02:09:53.747Z,86.98
2019-03-23T02:12:21.403Z,87.37
2019-03-23T02:14:49.145Z,87.78
2019-03-23T02:17:16.962Z,87.89
2019-03-23T02:19:44.750Z,88.03
2019-03-23T02:22:12.396Z,87.91
2019-03-23T02:24:40.058Z,87.39
2019-03-23T02:27:07.707Z,86.97
2019-03-23T02:29:35.397Z,86.89
2019-03-23T02:32:03.236Z,87.14
2019-03-23T02:34:31.083Z,87.45
2019-03-23T02:36:58.852Z,86.92
2019-03-23T02:39:26.510Z,86.63
2019-03-23T02:41:54.164Z,86.54
2019-03-23T02:44:21.819Z,86.80
2019-03-23T02:46:49.475Z,85.76
2019-03-23T02:49:17.180Z,87.84
2019-03-23T02:51:44.924Z,87.98
2019-03-23T02:54:12.779Z,88.33
2019-03-23T02:56:40.435Z,88.26
2019-03-23T02:59:08.092Z,87.31
2019-03-23T03:01:35.805Z,86.96
2019-03-23T03:04:03.524Z,87.00
2019-03-23T03:06:31.248Z,87.64
2019-03-23T03:08:58.968Z,88.18
2019-03-23T03:11:26.960Z,88.08
2019-03-23T03:13:54.652Z,87.57
2019-03-23T03:16:22.332Z,88.21
2019-03-23T03:18:49.983Z,87.86
2019-03-23T03:21:17.653Z,87.92
2019-03-23T03:23:45.522Z,89.24
2019-03-23T03:26:13.249Z,89.09
2019-03-23T03:28:41.205Z,88.87
2019-03-23T03:31:08.923Z,87.97
2019-03-23T03:33:36.586Z,87.04
2019-03-23T03:36:04.334Z,87.71
2019-03-23T03:38:32.002Z,86.93
2019-03-23T03:41:00.040Z,87.67
2019-03-23T03:43:28.080Z,87.91
2019-03-23T03:45:55.758Z,88.05
2019-03-23T03:48:23.421Z,88.32
2019-03-23T03:50:51.083Z,88.30
2019-03-23T03:53:18.740Z,88.42
2019-03-23T03:55:46.505Z,89.30
2019-03-23T03:58:14.163Z,89.49
2019-03-23T04:00:41.828Z,89.44
2019-03-23T04:03:09.520Z,88.64
2019-03-23T04:05:37.546Z,88.81
2019-03-23T04:08:11.528Z,88.69
2019-03-23T04:10:34.619Z,87.69
2019-03-23T04:13:02.355Z,87.80
2019-03-23T04:15:30.208Z,87.68
2019-03-23T04:17:57.957Z,87.98
2019-03-23T04:20:25.670Z,89.82
2019-03-23T04:22:53.322Z,90.22
2019-03-23T04:25:21.034Z,89.96
2019-03-23T04:27:48.757Z,88.95
2019-03-23T04:30:16.562Z,88.71
2019-03-23T04:32:44.260Z,89.20
2019-03-23T04:35:11.911Z,89.08
2019-03-23T04:37:39.581Z,88.79
2019-03-23T04:40:07.237Z,88.69
2019-03-23T04:42:35.224Z,89.00
2019-03-23T04:45:02.881Z,89.02
2019-03-23T04:47:30.581Z,88.92
2019-03-23T04:49:58.398Z,88.86
2019-03-23T04:52:26.057Z,88.84
2019-03-23T04:54:53.732Z,89.52
2019-03-23T04:57:21.391Z,89.52
2019-03-23T04:59:49.138Z,89.30
2019-03-23T05:02:16.798Z,89.37
2019-03-23T05:04:44.469Z,88.75
2019-03-23T05:07:12.127Z,88.80
2019-03-23T05:09:39.788Z,88.62
2019-03-23T05:12:07.447Z,88.89
2019-03-23T05:14:35.107Z,88.56
2019-03-23T05:17:02.856Z,87.90
2019-03-23T05:19:30.511Z,87.92
2019-03-23T05:21:58.236Z,87.76
2019-03-23T05:24:25.943Z,87.41
2019-03-23T05:26:53.643Z,87.40
2019-03-23T05:29:21.375Z,87.37
2019-03-23T05:31:49.054Z,87.24
2019-03-23T05:34:16.708Z,87.45
2019-03-23T05:36:44.574Z,87.48
2019-03-23T05:39:12.244Z,87.67
2019-03-23T05:41:39.912Z,87.62
2019-03-23T05:44:07.571Z,87.45
2019-03-23T05:46:35.234Z,87.55
2019-03-23T05:49:02.907Z,87.30
2019-03-23T05:51:30.590Z,86.61
2019-03-23T05:53:58.454Z,85.48
2019-03-23T05:56:26.111Z,84.74
2019-03-23T05:58:53.771Z,83.95
2019-03-23T06:01:21.516Z,83.45
2019-03-23T06:03:49.235Z,83.15
2019-03-23T06:06:16.955Z,82.61
2019-03-23T06:08:54.219Z,81.96
2019-03-23T06:11:13.989Z,81.23
2019-03-23T06:13:41.727Z,80.80
2019-03-23T06:16:09.423Z,80.14
2019-03-23T06:18:37.109Z,80.47
2019-03-23T06:21:08.888Z,79.52
2019-03-23T06:23:36.576Z,78.97
2019-03-23T06:26:06.458Z,78.42
2019-03-23T06:28:33.810Z,77.50
2019-03-23T06:31:01.458Z,76.85
2019-03-23T06:33:29.203Z,76.44
2019-03-23T06:35:56.888Z,75.93
2019-03-23T06:38:24.995Z,75.61
2019-03-23T06:40:52.654Z,75.07
2019-03-23T06:43:20.307Z,75.41
2019-03-23T06:45:47.968Z,74.98
2019-03-23T06:48:15.683Z,73.63
2019-03-23T06:50:43.469Z,73.40
2019-03-23T06:53:11.138Z,73.18
2019-03-23T06:55:38.791Z,73.59
2019-03-23T06:58:06.467Z,73.59
2019-03-23T07:00:34.129Z,72.75
2019-03-23T07:03:01.793Z,72.79
2019-03-23T07:05:29.443Z,72.28
2019-03-23T07:07:57.106Z,71.87
2019-03-23T07:10:24.751Z,71.36
2019-03-23T07:12:52.410Z,71.23
2019-03-23T07:15:20.652Z,71.01
2019-03-23T07:17:48.550Z,69.86
2019-03-23T07:20:16.315Z,70.09
2019-03-23T07:22:44.048Z,70.09
2019-03-23T07:25:11.715Z,68.92
2019-03-23T07:27:39.380Z,68.50
2019-03-23T07:30:07.043Z,68.60
2019-03-23T07:32:34.712Z,66.41
2019-03-23T07:35:02.381Z,66.41
2019-03-23T07:37:30.087Z,66.92
2019-03-23T07:39:57.740Z,66.11
2019-03-23T07:42:25.395Z,64.88
2019-03-23T07:44:53.062Z,64.62
2019-03-23T07:47:20.719Z,64.91
2019-03-23T07:49:48.387Z,64.02
2019-03-23T07:52:16.075Z,63.64
2019-03-23T07:54:43.832Z,63.54
2019-03-23T07:57:11.596Z,63.45
2019-03-23T07:59:39.257Z,62.90
2019-03-23T08:02:06.988Z,62.09
2019-03-23T08:04:34.659Z,61.59
2019-03-23T08:07:02.315Z,60.37
2019-03-23T08:09:37.550Z,59.87
2019-03-23T08:11:59.344Z,60.05
2019-03-23T08:14:27.018Z,60.04
2019-03-23T08:16:54.823Z,59.87
2019-03-23T08:19:22.614Z,59.33
2019-03-23T08:21:50.463Z,58.53
2019-03-23T08:24:18.131Z,58.29
2019-03-23T08:26:45.800Z,59.03
2019-03-23T08:29:13.474Z,56.83
2019-03-23T08:31:41.215Z,57.25
2019-03-23T08:34:08.890Z,56.44
2019-03-23T08:36:36.544Z,56.44
2019-03-23T08:39:04.687Z,55.25
2019-03-23T08:41:32.343Z,55.25
2019-03-23T08:44:00.013Z,55.00
2019-03-23T08:46:27.728Z,54.59
2019-03-23T08:48:55.443Z,54.57
2019-03-23T08:51:23.159Z,56.65
2019-03-23T08:53:51.558Z,56.03
2019-03-23T08:56:19.270Z,53.24
2019-03-23T08:58:47.005Z,52.71
2019-03-23T09:01:14.686Z,51.79
2019-03-23T09:03:52.052Z,50.58
2019-03-23T09:06:12.271Z,51.38
2019-03-23T09:08:39.933Z,50.93
2019-03-23T09:11:07.721Z,51.47
2019-03-23T09:13:40.618Z,49.80
2019-03-23T09:16:04.824Z,48.46
2019-03-23T09:18:32.484Z,48.90
2019-03-23T09:21:00.159Z,49.01
2019-03-23T09:23:28.010Z,49.95
2019-03-23T09:25:55.800Z,48.87
2019-03-23T09:28:23.546Z,48.47
2019-03-23T09:30:51.294Z,48.47
2019-03-23T09:33:18.951Z,47.47
2019-03-23T09:35:46.610Z,47.04
2019-03-23T09:38:14.271Z,48.58
2019-03-23T09:40:42.045Z,47.66
2019-03-23T09:43:10.272Z,44.76
2019-03-23T09:45:37.926Z,44.98
2019-03-23T09:48:05.587Z,46.32
2019-03-23T09:50:33.242Z,46.37
2019-03-23T09:53:00.940Z,44.26
2019-03-23T09:55:28.859Z,44.09
2019-03-23T09:57:56.651Z,44.48
2019-03-23T10:00:24.333Z,43.95
2019-03-23T10:02:51.982Z,43.75
2019-03-23T10:05:19.635Z,42.82
2019-03-23T10:07:47.279Z,43.43
2019-03-23T10:10:21.761Z,42.54
2019-03-23T10:12:44.366Z,43.46
2019-03-23T10:15:12.034Z,43.06
2019-03-23T10:17:39.674Z,42.32
2019-03-23T10:20:07.351Z,43.89
2019-03-23T10:22:35.002Z,40.97
2019-03-23T10:25:02.667Z,41.85
2019-03-23T10:27:30.359Z,42.91
2019-03-23T10:29:58.095Z,42.83
2019-03-23T10:32:25.742Z,41.09
2019-03-23T10:34:53.388Z,40.91
2019-03-23T10:37:21.085Z,40.21
2019-03-23T10:39:48.722Z,40.29
2019-03-23T10:42:16.948Z,40.71
2019-03-23T10:44:44.670Z,39.76
2019-03-23T10:47:12.316Z,40.84
2019-03-23T10:49:39.965Z,39.84
2019-03-23T10:52:07.610Z,39.71
2019-03-23T10:54:35.287Z,38.65
2019-03-23T10:57:03.014Z,38.47
2019-03-23T10:59:30.667Z,39.25
2019-03-23T11:01:58.480Z,38.35
2019-03-23T11:04:26.128Z,37.57
2019-03-23T11:06:53.794Z,38.54
2019-03-23T11:09:21.442Z,37.53
2019-03-23T11:11:49.129Z,38.90
2019-03-23T11:14:16.844Z,37.67
2019-03-23T11:16:44.748Z,38.14
2019-03-23T11:19:13.508Z,38.18
2019-03-23T11:21:41.470Z,37.95
2019-03-23T11:24:09.117Z,37.04
2019-03-23T11:26:36.785Z,38.30
2019-03-23T11:29:04.455Z,39.71
2019-03-23T11:31:32.127Z,38.37
2019-03-23T11:33:59.787Z,36.92
2019-03-23T11:36:27.492Z,37.93
2019-03-23T11:38:55.162Z,37.87
2019-03-23T11:41:22.848Z,38.57
2019-03-23T11:43:50.568Z,37.95
2019-03-23T11:46:18.240Z,36.96
2019-03-23T11:48:45.897Z,38.74
2019-03-23T11:51:13.550Z,39.73
2019-03-23T11:53:41.211Z,40.11
2019-03-23T11:56:08.878Z,37.19
2019-03-23T11:58:36.647Z,37.04
2019-03-23T12:01:04.296Z,37.94
2019-03-23T12:03:31.951Z,37.44
2019-03-23T12:05:59.600Z,37.65
2019-03-23T12:08:27.267Z,36.65
2019-03-23T12:11:02.552Z,38.46
2019-03-23T12:13:24.275Z,37.45
2019-03-23T12:15:51.936Z,37.59
2019-03-23T12:18:19.602Z,39.05
2019-03-23T12:20:47.256Z,37.31
2019-03-23T12:23:14.913Z,38.04
2019-03-23T12:25:42.567Z,37.20
2019-03-23T12:28:10.219Z,36.89
2019-03-23T12:30:37.897Z,37.18
2019-03-23T12:33:05.555Z,37.95
2019-03-23T12:35:33.206Z,38.14
2019-03-23T12:38:00.863Z,37.88
2019-03-23T12:40:28.534Z,37.59
2019-03-23T12:42:56.236Z,37.14
2019-03-23T12:45:23.936Z,38.16
2019-03-23T12:47:51.767Z,38.84
2019-03-23T12:50:19.433Z,38.18
2019-03-23T12:52:47.075Z,37.80
2019-03-23T12:55:14.737Z,38.63
2019-03-23T12:57:42.395Z,38.13
2019-03-23T13:00:10.119Z,38.13
2019-03-23T13:02:37.800Z,38.68
2019-03-23T13:05:05.439Z,38.31
2019-03-23T13:07:33.086Z,37.37
2019-03-23T13:10:00.765Z,39.11
2019-03-23T13:12:28.503Z,39.11
2019-03-23T13:14:56.150Z,38.72
2019-03-23T13:17:23.996Z,39.86
2019-03-23T13:19:51.653Z,38.17
2019-03-23T13:22:19.340Z,37.42
2019-03-23T13:24:47.012Z,37.66
2019-03-23T13:27:14.675Z,38.89
2019-03-23T13:29:42.344Z,39.29
2019-03-23T13:32:09.990Z,38.68
2019-03-23T13:34:37.655Z,39.14
2019-03-23T13:37:05.339Z,39.43
2019-03-23T13:39:32.995Z,39.08
2019-03-23T13:42:00.701Z,40.15
2019-03-23T13:44:28.368Z,39.52
2019-03-23T13:46:56.023Z,39.40
2019-03-23T13:49:23.670Z,39.94
2019-03-23T13:51:51.361Z,38.56
2019-03-23T13:54:19.010Z,39.61
2019-03-23T13:56:46.663Z,39.97
2019-03-23T13:59:14.343Z,39.67
2019-03-23T14:01:42.015Z,39.36
2019-03-23T14:04:09.659Z,39.81
2019-03-23T14:06:37.315Z,40.21
2019-03-23T14:09:05.325Z,38.49
2019-03-23T14:11:32.996Z,39.77
2019-03-23T14:14:00.645Z,39.66
2019-03-23T14:16:28.315Z,39.91
2019-03-23T14:18:56.357Z,39.72
2019-03-23T14:21:24.122Z,40.69
2019-03-23T14:23:51.773Z,40.94
2019-03-23T14:26:19.439Z,41.10
2019-03-23T14:28:47.124Z,40.16
2019-03-23T14:31:14.822Z,39.96
2019-03-23T14:33:42.534Z,39.96
2019-03-23T14:36:10.190Z,40.22
2019-03-23T14:38:37.837Z,39.74
2019-03-23T14:41:05.495Z,39.68
2019-03-23T14:43:33.143Z,39.93
2019-03-23T14:46:00.806Z,40.24
2019-03-23T14:48:28.454Z,40.70
2019-03-23T14:50:56.226Z,40.93
2019-03-23T14:53:23.882Z,40.29
2019-03-23T14:55:51.544Z,40.38
2019-03-23T14:58:19.211Z,41.40
2019-03-23T15:00:47.094Z,41.30
2019-03-23T15:03:14.867Z,41.81
2019-03-23T15:05:42.607Z,40.82
2019-03-23T15:08:10.371Z,40.27
2019-03-23T15:10:38.058Z,41.13
2019-03-23T15:13:05.809Z,41.71
2019-03-23T15:15:33.586Z,39.80
2019-03-23T15:18:01.240Z,39.81
2019-03-23T15:20:28.898Z,39.58
2019-03-23T15:22:56.541Z,38.97
2019-03-23T15:25:24.194Z,39.96
2019-03-23T15:27:51.847Z,38.68
2019-03-23T15:30:19.554Z,38.86
2019-03-23T15:32:47.268Z,39.43
2019-03-23T15:35:14.923Z,39.07
2019-03-23T15:37:42.583Z,39.00
2019-03-23T15:40:10.233Z,38.96
2019-03-23T15:42:37.885Z,38.70
2019-03-23T15:45:05.542Z,38.94
2019-03-23T15:47:33.259Z,38.83
2019-03-23T15:50:01.007Z,39.25
2019-03-23T15:52:28.663Z,39.43
2019-03-23T15:54:56.313Z,38.89
2019-03-23T15:57:23.993Z,39.06
2019-03-23T15:59:51.634Z,38.89
2019-03-23T16:02:19.346Z,38.98
2019-03-23T16:04:47.025Z,39.29
2019-03-23T16:07:14.711Z,39.84
2019-03-23T16:09:42.414Z,39.59
2019-03-23T16:12:10.072Z,40.05
2019-03-23T16:14:37.730Z,40.37
2019-03-23T16:17:05.387Z,40.47
2019-03-23T16:19:33.067Z,41.10
2019-03-23T16:22:00.779Z,40.28
2019-03-23T16:24:28.467Z,39.82
2019-03-23T16:26:56.134Z,40.13
2019-03-23T16:29:23.807Z,40.74
2019-03-23T16:31:51.539Z,40.74
2019-03-23T16:34:19.260Z,41.37
2019-03-23T16:36:46.902Z,41.73
2019-03-23T16:39:14.566Z,41.92
2019-03-23T16:41:42.251Z,41.73
2019-03-23T16:44:09.929Z,42.22
2019-03-23T16:46:37.612Z,41.91
2019-03-23T16:49:05.278Z,43.75
2019-03-23T16:51:33.003Z,43.75
2019-03-23T16:54:00.671Z,44.07
2019-03-23T16:56:28.319Z,44.90
2019-03-23T16:58:56.036Z,45.45
2019-03-23T17:01:23.810Z,46.39
2019-03-23T17:03:51.488Z,47.80
2019-03-23T17:06:19.361Z,48.59
2019-03-23T17:08:47.087Z,52.04
2019-03-23T17:11:14.744Z,53.29
2019-03-23T17:13:42.404Z,54.37
2019-03-23T17:16:10.063Z,56.51
2019-03-23T17:18:37.734Z,58.82
2019-03-23T17:21:05.431Z,59.33
2019-03-23T17:23:33.098Z,60.58
2019-03-23T17:26:00.755Z,61.72
2019-03-23T17:28:28.425Z,62.67
2019-03-23T17:30:56.186Z,62.95
2019-03-23T17:33:23.859Z,63.22
2019-03-23T17:35:51.516Z,63.74
2019-03-23T17:38:19.233Z,63.92
2019-03-23T17:40:46.870Z,64.25
2019-03-23T17:43:14.826Z,64.92
2019-03-23T17:45:42.497Z,65.13
2019-03-23T17:48:10.239Z,65.00
2019-03-23T17:50:37.917Z,65.54
2019-03-23T17:53:05.568Z,64.90
2019-03-23T17:55:33.236Z,64.32
2019-03-23T17:58:00.969Z,63.67
2019-03-23T18:00:29.411Z,63.67
2019-03-23T18:02:57.224Z,63.75
2019-03-23T18:05:24.970Z,63.97
2019-03-23T18:07:52.639Z,64.11
2019-03-23T18:10:20.343Z,63.90
2019-03-23T18:12:48.124Z,63.07
2019-03-23T18:15:15.796Z,63.07
2019-03-23T18:17:43.452Z,62.13
2019-03-23T18:20:11.118Z,61.08
2019-03-23T18:22:38.782Z,60.93
2019-03-23T18:25:06.449Z,60.52
2019-03-23T18:27:39.482Z,60.52
2019-03-23T18:30:07.146Z,60.84
2019-03-23T18:32:34.803Z,60.73
2019-03-23T18:35:03.284Z,60.14
2019-03-23T18:37:31.168Z,60.54
2019-03-23T18:39:58.855Z,59.29
2019-03-23T18:42:26.515Z,60.11
2019-03-23T18:44:54.179Z,59.24
2019-03-23T18:47:21.842Z,59.24
2019-03-23T18:49:49.511Z,59.85
2019-03-23T18:52:17.323Z,60.09
2019-03-23T18:54:45.103Z,60.75
2019-03-23T18:57:12.799Z,59.81
2019-03-23T18:59:40.456Z,59.33
2019-03-23T19:02:08.112Z,59.45
2019-03-23T19:04:35.775Z,59.98
2019-03-23T19:07:03.568Z,60.14
2019-03-23T19:09:31.322Z,59.71
2019-03-23T19:11:58.999Z,60.16
2019-03-23T19:14:26.683Z,60.25
2019-03-23T19:16:54.360Z,60.50
2019-03-23T19:19:22.027Z,60.98
2019-03-23T19:21:49.683Z,61.09
2019-03-23T19:24:17.364Z,61.00
2019-03-23T19:26:45.103Z,61.93
2019-03-23T19:29:12.802Z,63.77
2019-03-23T19:31:40.755Z,64.19
2019-03-23T19:34:08.451Z,64.67
2019-03-23T19:36:36.107Z,64.11
2019-03-23T19:39:04.823Z,64.10
2019-03-23T19:41:32.501Z,64.10
2019-03-23T19:44:00.251Z,63.34
2019-03-23T19:46:27.916Z,64.41
2019-03-23T19:48:55.573Z,64.41
2019-03-23T19:51:23.235Z,64.72
2019-03-23T19:53:50.902Z,64.69
2019-03-23T19:56:18.588Z,64.43
2019-03-23T19:58:46.246Z,64.38
2019-03-23T20:01:13.914Z,64.50
2019-03-23T20:03:41.577Z,65.07
2019-03-23T20:06:09.241Z,65.19
2019-03-23T20:08:36.898Z,65.19
2019-03-23T20:11:04.612Z,65.76
2019-03-23T20:13:32.268Z,66.45
2019-03-23T20:15:59.963Z,67.77
2019-03-23T20:18:27.618Z,68.06
2019-03-23T20:20:55.279Z,68.85
2019-03-23T20:23:22.964Z,69.41
2019-03-23T20:25:50.692Z,69.58
2019-03-23T20:28:18.770Z,69.94
2019-03-23T20:30:46.650Z,69.55
2019-03-23T20:33:19.385Z,69.71
2019-03-23T20:35:43.752Z,70.09
2019-03-23T20:38:11.482Z,70.73
2019-03-23T20:40:39.175Z,70.85
2019-03-23T20:43:06.835Z,70.50
2019-03-23T20:45:34.512Z,71.46
2019-03-23T20:48:02.167Z,71.66
2019-03-23T20:50:29.837Z,71.54
2019-03-23T20:52:57.508Z,71.66
2019-03-23T20:55:25.246Z,71.86
2019-03-23T20:57:53.006Z,71.86
2019-03-23T21:00:20.751Z,72.23
2019-03-23T21:02:48.424Z,72.37
2019-03-23T21:05:16.089Z,72.45
2019-03-23T21:07:43.813Z,73.11
2019-03-23T21:10:11.519Z,72.66
2019-03-23T21:12:39.194Z,72.91
2019-03-23T21:15:06.864Z,73.03
2019-03-23T21:17:34.525Z,73.16
2019-03-23T21:20:02.263Z,73.18
2019-03-23T21:22:29.973Z,73.52
2019-03-23T21:24:57.764Z,73.49
2019-03-23T21:27:25.513Z,73.54
2019-03-23T21:29:53.210Z,73.75
2019-03-23T21:32:21.244Z,73.96
2019-03-23T21:34:48.903Z,74.19
2019-03-23T21:37:16.563Z,74.31
2019-03-23T21:39:44.286Z,73.74
2019-03-23T21:42:11.940Z,73.81
2019-03-23T21:44:39.609Z,73.47
2019-03-23T21:47:07.279Z,72.80
2019-03-23T21:49:34.938Z,72.35
2019-03-23T21:52:02.600Z,72.08
2019-03-23T21:54:30.264Z,72.37
2019-03-23T21:56:58.005Z,72.16
2019-03-23T21:59:25.877Z,72.97
2019-03-23T22:01:53.531Z,73.23
2019-03-23T22:04:21.191Z,72.95
2019-03-23T22:06:48.866Z,72.58
2019-03-23T22:09:16.531Z,72.76
2019-03-23T22:11:44.231Z,73.01
2019-03-23T22:14:11.915Z,73.00
2019-03-23T22:16:39.666Z,73.55
2019-03-23T22:19:07.327Z,73.21
2019-03-23T22:21:35.000Z,73.26
2019-03-23T22:24:02.668Z,73.50
2019-03-23T22:26:30.332Z,73.53
2019-03-23T22:28:58.024Z,73.46
2019-03-23T22:31:25.682Z,73.58
2019-03-23T22:33:53.340Z,73.59
2019-03-23T22:36:20.992Z,74.12
2019-03-23T22:38:48.663Z,74.61
2019-03-23T22:41:16.327Z,74.47
2019-03-23T22:43:44.006Z,74.08
2019-03-23T22:46:11.719Z,74.93
2019-03-23T22:48:39.401Z,74.26
2019-03-23T22:51:07.091Z,74.77
2019-03-23T22:53:34.755Z,74.98
2019-03-23T22:56:02.645Z,75.29
2019-03-23T22:58:30.355Z,75.29
2019-03-23T23:00:58.042Z,75.58
2019-03-23T23:03:25.918Z,75.46
2019-03-23T23:05:53.937Z,75.76
2019-03-23T23:08:21.707Z,75.41
2019-03-23T23:10:49.363Z,75.05
2019-03-23T23:13:17.026Z,74.56
2019-03-23T23:15:44.745Z,75.25
2019-03-23T23:18:12.416Z,76.03
2019-03-23T23:20:40.071Z,74.89
2019-03-23T23:23:07.815Z,74.64
2019-03-23T23:25:35.742Z,74.67
2019-03-23T23:28:03.442Z,73.93
2019-03-23T23:30:31.103Z,74.10
2019-03-23T23:32:58.770Z,74.28
2019-03-23T23:35:26.482Z,74.11
2019-03-23T23:37:54.144Z,74.17
2019-03-23T23:40:21.803Z,74.84
2019-03-23T23:42:49.710Z,74.49
2019-03-23T23:45:17.421Z,74.35
2019-03-23T23:47:45.158Z,74.93
2019-03-23T23:50:12.829Z,75.43
2019-03-23T23:52:40.480Z,76.23
2019-03-23T23:55:08.147Z,75.54
2019-03-23T23:57:35.807Z,75.36
